createdAt,value
2018-07-02T00:02:32.245Z,92.00
2018-07-02T00:05:06.888Z,92.00
2018-07-02T00:07:44.662Z,92.10
2018-07-02T00:10:13.023Z,92.20
2018-07-02T00:12:41.326Z,92.30
2018-07-02T00:15:17.073Z,92.40
2018-07-02T00:17:45.369Z,92.60
2018-07-02T00:20:17.808Z,92.70
2018-07-02T00:22:51.835Z,92.80
2018-07-02T00:25:31.481Z,92.80
2018-07-02T00:28:06.164Z,92.90
2018-07-02T00:30:38.635Z,92.90
2018-07-02T00:33:06.971Z,93.00
2018-07-02T00:35:44.673Z,93.10
2018-07-02T00:38:12.958Z,93.20
2018-07-02T00:40:47.904Z,93.20
2018-07-02T00:43:24.125Z,93.40
2018-07-02T00:45:52.471Z,93.40
2018-07-02T00:48:20.778Z,93.50
2018-07-02T00:50:55.815Z,93.60
2018-07-02T00:53:34.316Z,93.60
2018-07-02T00:56:09.716Z,93.80
2018-07-02T00:58:48.176Z,93.90
2018-07-02T01:01:22.049Z,94.10
2018-07-02T01:03:50.357Z,94.20
2018-07-02T01:06:24.349Z,94.40
2018-07-02T01:08:53.128Z,94.60
2018-07-02T01:11:25.703Z,94.70
2018-07-02T01:14:08.968Z,94.80
2018-07-02T01:16:43.474Z,95.00
2018-07-02T01:19:19.713Z,95.10
2018-07-02T01:21:52.176Z,95.30
2018-07-02T01:24:27.011Z,95.30
2018-07-02T01:26:58.094Z,95.60
2018-07-02T01:29:38.372Z,95.60
2018-07-02T01:32:20.167Z,95.80
2018-07-02T01:34:52.692Z,95.70
2018-07-02T01:37:20.983Z,95.80
2018-07-02T01:39:56.901Z,96.00
2018-07-02T01:42:25.224Z,96.10
2018-07-02T01:44:53.491Z,96.20
2018-07-02T01:47:34.435Z,96.20
2018-07-02T01:50:19.714Z,96.30
2018-07-02T01:52:50.243Z,96.40
2018-07-02T01:55:20.938Z,96.40
2018-07-02T01:57:57.896Z,96.60
2018-07-02T02:00:26.198Z,96.60
2018-07-02T02:02:57.319Z,96.80
2018-07-02T02:05:29.067Z,96.90
2018-07-02T02:08:04.099Z,97.00
2018-07-02T02:10:36.215Z,97.00
2018-07-02T02:13:04.640Z,97.20
2018-07-02T02:15:33.075Z,97.30
2018-07-02T02:18:01.500Z,97.50
2018-07-02T02:20:39.365Z,97.50
2018-07-02T02:23:07.820Z,97.50
2018-07-02T02:25:36.489Z,97.70
2018-07-02T02:28:08.936Z,97.70
2018-07-02T02:30:41.736Z,97.90
2018-07-02T02:33:16.634Z,97.90
2018-07-02T02:35:45.283Z,98.10
2018-07-02T02:38:15.432Z,98.10
2018-07-02T02:40:43.686Z,98.10
2018-07-02T02:43:20.613Z,98.10
2018-07-02T02:45:51.889Z,98.20
2018-07-02T02:48:20.150Z,98.30
2018-07-02T02:50:52.930Z,98.40
2018-07-02T02:53:21.206Z,98.60
2018-07-02T02:55:49.459Z,98.70
2018-07-02T02:58:24.933Z,98.80
2018-07-02T03:00:59.741Z,99.00
2018-07-02T03:03:28.021Z,99.20
2018-07-02T03:05:59.101Z,99.60
2018-07-02T03:08:29.451Z,99.60
2018-07-02T03:11:01.982Z,99.80
2018-07-02T03:13:34.590Z,99.70
2018-07-02T03:16:11.791Z,99.90
2018-07-02T03:18:44.347Z,99.90
2018-07-02T03:21:16.840Z,99.90
2018-07-02T03:23:49.149Z,99.90
2018-07-02T03:26:38.190Z,99.90
2018-07-02T03:29:06.525Z,99.90
2018-07-02T03:31:34.793Z,99.90
2018-07-02T03:34:08.263Z,99.90
2018-07-02T03:36:42.848Z,99.90
2018-07-02T03:39:16.039Z,99.90
2018-07-02T03:44:12.440Z,99.90
2018-07-02T03:46:40.828Z,99.90
2018-07-02T03:49:09.089Z,99.90
2018-07-02T03:51:40.168Z,99.90
2018-07-02T03:54:10.470Z,99.90
2018-07-02T03:56:38.854Z,99.90
2018-07-02T03:59:07.141Z,99.90
2018-07-02T04:01:45.521Z,99.90
2018-07-02T04:04:16.771Z,99.90
2018-07-02T04:06:49.151Z,99.90
2018-07-02T04:09:17.761Z,99.90
2018-07-02T04:11:53.853Z,99.90
2018-07-02T04:14:22.640Z,99.90
2018-07-02T04:16:54.128Z,99.90
2018-07-02T04:19:27.399Z,99.90
2018-07-02T04:21:58.282Z,99.90
2018-07-02T04:24:35.021Z,99.90
2018-07-02T04:27:03.768Z,99.90
2018-07-02T04:29:35.139Z,99.90
2018-07-02T04:32:03.724Z,99.90
2018-07-02T04:34:34.084Z,99.90
2018-07-02T04:37:02.448Z,99.90
2018-07-02T04:39:31.057Z,99.90
2018-07-02T04:41:59.408Z,99.40
2018-07-02T04:44:27.686Z,98.90
2018-07-02T04:47:00.451Z,98.30
2018-07-02T04:49:28.866Z,97.90
2018-07-02T04:51:57.137Z,97.70
2018-07-02T04:54:31.889Z,97.70
2018-07-02T04:57:00.236Z,97.00
2018-07-02T04:59:33.647Z,96.50
2018-07-02T05:02:06.963Z,96.30
2018-07-02T05:04:40.429Z,96.20
2018-07-02T05:07:15.167Z,96.20
2018-07-02T05:09:43.446Z,96.00
2018-07-02T05:12:15.852Z,96.00
2018-07-02T05:14:50.503Z,96.00
2018-07-02T05:17:18.791Z,95.90
2018-07-02T05:19:53.542Z,96.00
2018-07-02T05:22:21.814Z,95.80
2018-07-02T05:24:52.754Z,95.70
2018-07-02T05:27:23.339Z,95.60
2018-07-02T05:29:54.248Z,95.50
2018-07-02T05:32:28.954Z,95.10
2018-07-02T05:34:57.305Z,94.70
2018-07-02T05:37:25.684Z,94.00
2018-07-02T05:39:57.036Z,93.20
2018-07-02T05:42:32.598Z,92.40
2018-07-02T05:45:05.871Z,91.80
2018-07-02T05:47:43.593Z,91.10
2018-07-02T05:50:11.869Z,90.30
2018-07-02T05:55:19.890Z,88.20
2018-07-02T05:57:52.370Z,87.10
2018-07-02T06:00:25.783Z,85.60
2018-07-02T06:02:59.366Z,84.40
2018-07-02T06:05:27.607Z,83.60
2018-07-02T06:08:07.463Z,82.70
2018-07-02T06:10:35.827Z,82.00
2018-07-02T06:13:08.568Z,81.70
2018-07-02T06:15:38.868Z,81.10
2018-07-02T06:18:07.131Z,80.10
2018-07-02T06:20:35.424Z,79.80
2018-07-02T06:23:10.124Z,79.70
2018-07-02T06:25:38.393Z,78.30
2018-07-02T06:28:11.661Z,78.50
2018-07-02T06:30:42.831Z,77.70
2018-07-02T06:33:13.702Z,77.20
2018-07-02T06:35:48.380Z,76.50
2018-07-02T06:38:16.783Z,76.60
2018-07-02T06:40:52.012Z,76.70
2018-07-02T06:43:26.944Z,76.20
2018-07-02T06:45:55.290Z,76.20
2018-07-02T06:48:23.621Z,75.20
2018-07-02T06:50:58.360Z,73.60
2018-07-02T06:53:26.616Z,73.10
2018-07-02T06:55:58.082Z,72.70
2018-07-02T06:58:28.217Z,72.90
2018-07-02T07:01:01.425Z,72.40
2018-07-02T07:03:31.891Z,71.90
2018-07-02T07:06:00.815Z,71.60
2018-07-02T07:08:32.006Z,71.60
2018-07-02T07:11:00.469Z,69.80
2018-07-02T07:13:33.060Z,68.20
2018-07-02T07:16:06.732Z,67.30
2018-07-02T07:18:49.512Z,67.20
2018-07-02T07:21:18.128Z,66.00
2018-07-02T07:23:46.875Z,65.70
2018-07-02T07:26:21.127Z,65.50
2018-07-02T07:28:51.439Z,64.50
2018-07-02T07:31:19.700Z,64.30
2018-07-02T07:33:58.101Z,63.70
2018-07-02T07:36:29.626Z,64.00
2018-07-02T07:38:58.162Z,64.00
2018-07-02T07:41:26.390Z,63.50
2018-07-02T07:43:57.705Z,63.70
2018-07-02T07:46:30.946Z,63.70
2018-07-02T07:49:01.502Z,63.50
2018-07-02T07:51:43.827Z,62.80
2018-07-02T07:54:14.472Z,63.60
2018-07-02T07:56:57.411Z,62.00
2018-07-02T07:59:25.655Z,61.10
2018-07-02T08:01:56.682Z,60.60
2018-07-02T08:04:34.907Z,60.10
2018-07-02T08:07:03.659Z,61.60
2018-07-02T08:09:34.032Z,61.00
2018-07-02T08:12:02.424Z,61.50
2018-07-02T08:14:30.649Z,60.60
2018-07-02T08:16:59.004Z,59.40
2018-07-02T08:19:31.675Z,58.80
2018-07-02T08:22:00.066Z,58.20
2018-07-02T08:24:28.370Z,58.00
2018-07-02T08:27:05.065Z,56.90
2018-07-02T08:29:33.328Z,58.00
2018-07-02T08:32:06.489Z,57.80
2018-07-02T08:34:35.154Z,57.70
2018-07-02T08:37:08.383Z,57.30
2018-07-02T08:39:48.234Z,56.50
2018-07-02T08:42:21.418Z,56.70
2018-07-02T08:44:59.072Z,56.50
2018-07-02T08:47:32.635Z,56.20
2018-07-02T08:50:01.035Z,55.80
2018-07-02T08:52:32.148Z,55.40
2018-07-02T08:55:04.484Z,55.90
2018-07-02T08:57:44.949Z,54.80
2018-07-02T09:00:16.287Z,54.60
2018-07-02T09:02:46.854Z,54.30
2018-07-02T09:08:00.267Z,53.90
2018-07-02T09:10:28.810Z,52.90
2018-07-02T09:12:57.136Z,52.90
2018-07-02T09:15:28.241Z,53.90
2018-07-02T09:17:59.394Z,52.90
2018-07-02T09:20:27.918Z,52.10
2018-07-02T09:22:56.266Z,51.00
2018-07-02T09:25:24.560Z,50.10
2018-07-02T09:28:00.655Z,50.10
2018-07-02T09:30:41.592Z,50.10
2018-07-02T09:33:09.858Z,49.90
2018-07-02T09:35:43.282Z,49.90
2018-07-02T09:38:17.755Z,48.70
2018-07-02T09:40:48.773Z,48.50
2018-07-02T09:43:19.036Z,48.30
2018-07-02T09:45:47.443Z,47.70
2018-07-02T09:48:15.791Z,47.10
2018-07-02T09:50:48.211Z,47.20
2018-07-02T09:53:19.081Z,47.50
2018-07-02T09:55:47.512Z,46.70
2018-07-02T09:58:15.962Z,46.80
2018-07-02T10:00:44.428Z,46.00
2018-07-02T10:03:12.821Z,46.00
2018-07-02T10:05:41.126Z,44.70
2018-07-02T10:08:12.345Z,43.70
2018-07-02T10:10:45.396Z,43.80
2018-07-02T10:13:13.702Z,43.60
2018-07-02T10:15:42.138Z,43.70
2018-07-02T10:18:13.126Z,43.70
2018-07-02T10:20:44.354Z,44.80
2018-07-02T10:23:12.583Z,45.10
2018-07-02T10:25:43.791Z,43.60
2018-07-02T10:28:21.583Z,43.30
2018-07-02T10:30:49.927Z,43.70
2018-07-02T10:33:22.458Z,42.90
2018-07-02T10:35:58.364Z,42.20
2018-07-02T10:38:28.542Z,41.60
2018-07-02T10:40:56.790Z,41.40
2018-07-02T10:43:30.060Z,41.40
2018-07-02T10:46:10.455Z,40.50
2018-07-02T10:48:44.978Z,39.80
2018-07-02T10:51:18.239Z,39.50
2018-07-02T10:53:48.963Z,38.90
2018-07-02T10:56:23.631Z,39.60
2018-07-02T10:58:52.554Z,40.00
2018-07-02T11:01:25.825Z,39.00
2018-07-02T11:03:57.079Z,38.80
2018-07-02T11:06:25.428Z,39.00
2018-07-02T11:08:53.806Z,39.50
2018-07-02T11:11:24.054Z,38.10
2018-07-02T11:13:52.494Z,37.60
2018-07-02T11:16:24.949Z,37.30
2018-07-02T11:18:53.134Z,37.50
2018-07-02T11:21:21.649Z,37.90
2018-07-02T11:23:50.098Z,37.60
2018-07-02T11:26:18.525Z,38.10
2018-07-02T11:28:47.137Z,38.00
2018-07-02T11:31:15.424Z,37.40
2018-07-02T11:33:43.999Z,37.10
2018-07-02T11:36:12.637Z,36.00
2018-07-02T11:38:41.013Z,36.20
2018-07-02T11:41:09.326Z,36.20
2018-07-02T11:43:42.674Z,36.20
2018-07-02T11:46:22.725Z,35.70
2018-07-02T11:48:59.771Z,36.30
2018-07-02T11:51:28.425Z,35.80
2018-07-02T11:53:56.855Z,35.40
2018-07-02T11:56:25.023Z,35.10
2018-07-02T11:59:04.941Z,34.80
2018-07-02T12:01:35.157Z,35.50
2018-07-02T12:04:03.543Z,35.20
2018-07-02T12:06:31.767Z,35.20
2018-07-02T12:09:04.172Z,35.60
2018-07-02T12:11:46.988Z,36.00
2018-07-02T12:14:15.258Z,35.20
2018-07-02T12:16:46.285Z,35.10
2018-07-02T12:19:18.793Z,34.90
2018-07-02T12:21:51.085Z,35.30
2018-07-02T12:24:19.603Z,34.70
2018-07-02T12:26:49.999Z,35.00
2018-07-02T12:29:18.213Z,34.70
2018-07-02T12:31:46.502Z,34.20
2018-07-02T12:34:23.578Z,34.00
2018-07-02T12:37:03.539Z,34.40
2018-07-02T12:39:31.791Z,33.90
2018-07-02T12:42:03.062Z,34.20
2018-07-02T12:44:37.638Z,34.30
2018-07-02T12:47:12.392Z,33.80
2018-07-02T12:49:40.732Z,33.90
2018-07-02T12:52:22.583Z,33.80
2018-07-02T12:54:52.902Z,33.50
2018-07-02T12:57:21.139Z,33.50
2018-07-02T12:59:55.332Z,34.00
2018-07-02T13:02:28.051Z,33.80
2018-07-02T13:05:00.663Z,34.20
2018-07-02T13:07:28.988Z,34.40
2018-07-02T13:10:00.149Z,34.70
2018-07-02T13:12:31.069Z,35.00
2018-07-02T13:14:59.383Z,34.60
2018-07-02T13:17:36.343Z,35.30
2018-07-02T13:20:09.310Z,34.90
2018-07-02T13:22:40.375Z,34.70
2018-07-02T13:25:11.603Z,34.50
2018-07-02T13:27:42.187Z,34.30
2018-07-02T13:30:10.669Z,34.70
2018-07-02T13:37:40.701Z,34.00
2018-07-02T13:40:18.652Z,34.50
2018-07-02T13:42:49.922Z,34.30
2018-07-02T13:45:18.411Z,34.20
2018-07-02T13:47:46.949Z,34.50
2018-07-02T13:50:17.344Z,34.30
2018-07-02T13:52:45.677Z,34.40
2018-07-02T13:55:13.990Z,34.20
2018-07-02T13:57:48.775Z,34.60
2018-07-02T14:00:17.188Z,34.60
2018-07-02T14:02:45.436Z,34.60
2018-07-02T14:05:15.624Z,34.20
2018-07-02T14:07:47.309Z,34.40
2018-07-02T14:10:25.136Z,35.40
2018-07-02T14:12:53.437Z,34.40
2018-07-02T14:15:22.490Z,33.90
2018-07-02T14:17:59.411Z,34.00
2018-07-02T14:20:27.741Z,34.20
2018-07-02T14:23:01.168Z,34.10
2018-07-02T14:25:35.889Z,34.70
2018-07-02T14:28:04.142Z,34.40
2018-07-02T14:30:40.477Z,34.50
2018-07-02T14:33:16.420Z,34.30
2018-07-02T14:35:44.861Z,35.10
2018-07-02T14:38:13.556Z,34.30
2018-07-02T14:40:53.395Z,34.30
2018-07-02T14:43:24.527Z,34.30
2018-07-02T14:45:56.006Z,34.20
2018-07-02T14:48:30.399Z,34.30
2018-07-02T14:50:59.682Z,34.20
2018-07-02T14:53:27.971Z,34.00
2018-07-02T14:55:56.231Z,34.00
2018-07-02T14:58:28.998Z,34.00
2018-07-02T15:00:57.306Z,33.90
2018-07-02T15:03:30.386Z,34.20
2018-07-02T15:06:02.964Z,34.30
2018-07-02T15:08:35.430Z,34.00
2018-07-02T15:11:10.036Z,34.30
2018-07-02T15:13:42.575Z,34.20
2018-07-02T15:16:12.843Z,34.00
2018-07-02T15:18:47.496Z,34.20
2018-07-02T15:21:15.766Z,34.30
2018-07-02T15:23:51.911Z,34.10
2018-07-02T15:26:24.446Z,34.20
2018-07-02T15:28:54.714Z,34.20
2018-07-02T15:31:23.086Z,34.60
2018-07-02T15:33:51.594Z,34.30
2018-07-02T15:36:19.790Z,34.30
2018-07-02T15:38:52.190Z,34.70
2018-07-02T15:41:20.420Z,34.70
2018-07-02T15:43:52.870Z,34.70
2018-07-02T15:46:26.487Z,34.90
2018-07-02T15:49:01.113Z,34.70
2018-07-02T15:51:32.531Z,34.90
2018-07-02T15:54:07.224Z,35.20
2018-07-02T15:56:35.938Z,35.20
2018-07-02T15:59:04.535Z,35.40
2018-07-02T16:01:34.761Z,35.60
2018-07-02T16:04:03.082Z,35.90
2018-07-02T16:06:31.416Z,35.80
2018-07-02T16:09:02.520Z,35.90
2018-07-02T16:11:35.970Z,36.10
2018-07-02T16:14:09.970Z,36.20
2018-07-02T16:16:40.162Z,36.40
2018-07-02T16:19:10.295Z,36.10
2018-07-02T16:21:38.802Z,36.40
2018-07-02T16:24:10.425Z,35.60
2018-07-02T16:26:41.809Z,36.20
2018-07-02T16:29:15.946Z,36.40
2018-07-02T16:31:44.194Z,36.00
2018-07-02T16:34:27.934Z,36.30
2018-07-02T16:36:56.418Z,36.50
2018-07-02T16:39:24.806Z,36.80
2018-07-02T16:41:53.085Z,36.80
2018-07-02T16:44:25.486Z,36.90
2018-07-02T16:47:03.359Z,37.00
2018-07-02T16:49:33.839Z,36.90
2018-07-02T16:52:02.487Z,37.20
2018-07-02T16:54:33.703Z,37.10
2018-07-02T16:57:02.091Z,37.40
2018-07-02T16:59:30.337Z,37.30
2018-07-02T17:02:03.476Z,37.60
2018-07-02T17:04:34.872Z,37.60
2018-07-02T17:07:08.469Z,37.90
2018-07-02T17:09:50.757Z,38.00
2018-07-02T17:12:23.256Z,37.80
2018-07-02T17:14:56.666Z,37.80
2018-07-02T17:17:25.154Z,38.00
2018-07-02T17:19:56.936Z,37.90
2018-07-02T17:22:33.869Z,38.30
2018-07-02T17:25:02.412Z,38.40
2018-07-02T17:27:32.990Z,39.20
2018-07-02T17:30:12.130Z,38.80
2018-07-02T17:32:40.689Z,38.80
2018-07-02T17:35:11.263Z,38.80
2018-07-02T17:37:42.593Z,38.70
2018-07-02T17:42:43.229Z,38.70
2018-07-02T17:45:15.626Z,38.80
2018-07-02T17:47:53.235Z,39.00
2018-07-02T17:50:21.501Z,39.10
2018-07-02T17:52:56.140Z,39.30
2018-07-02T17:55:24.370Z,39.50
2018-07-02T17:57:55.576Z,39.50
2018-07-02T18:00:27.363Z,40.00
2018-07-02T18:05:37.719Z,40.80
2018-07-02T18:08:06.585Z,40.20
2018-07-02T18:10:36.888Z,40.40
2018-07-02T18:13:08.587Z,40.70
2018-07-02T18:15:46.542Z,40.90
2018-07-02T18:18:17.488Z,40.70
2018-07-02T18:20:50.646Z,40.80
2018-07-02T18:23:23.127Z,40.90
2018-07-02T18:26:04.110Z,41.10
2018-07-02T18:28:32.386Z,41.10
2018-07-02T18:31:09.862Z,41.30
2018-07-02T18:33:42.497Z,41.40
2018-07-02T18:36:10.832Z,42.40
2018-07-02T18:38:43.574Z,41.90
2018-07-02T18:41:11.891Z,42.30
2018-07-02T18:43:40.474Z,42.60
2018-07-02T18:46:08.888Z,42.70
2018-07-02T18:48:37.251Z,42.60
2018-07-02T18:51:09.712Z,42.70
2018-07-02T18:53:40.752Z,42.90
2018-07-02T18:56:12.123Z,43.30
2018-07-02T18:58:43.379Z,43.50
2018-07-02T19:01:11.612Z,43.80
2018-07-02T19:03:46.144Z,44.10
2018-07-02T19:06:14.616Z,44.50
2018-07-02T19:08:47.183Z,44.90
2018-07-02T19:11:15.468Z,45.10
2018-07-02T19:13:50.187Z,45.50
2018-07-02T19:16:18.522Z,45.60
2018-07-02T19:18:49.513Z,46.20
2018-07-02T19:21:19.967Z,46.70
2018-07-02T19:24:02.140Z,47.20
2018-07-02T19:26:30.632Z,47.80
2018-07-02T19:28:59.064Z,48.20
2018-07-02T19:31:27.289Z,48.80
2018-07-02T19:34:01.460Z,49.40
2018-07-02T19:36:36.091Z,50.10
2018-07-02T19:39:09.084Z,50.60
2018-07-02T19:41:37.381Z,51.50
2018-07-02T19:44:05.837Z,51.90
2018-07-02T19:46:34.016Z,52.40
2018-07-02T19:49:08.872Z,53.80
2018-07-02T19:51:37.111Z,53.80
2018-07-02T19:54:09.761Z,55.20
2018-07-02T19:56:38.131Z,55.10
2018-07-02T19:59:06.471Z,55.80
2018-07-02T20:01:38.833Z,56.50
2018-07-02T20:04:10.126Z,57.00
2018-07-02T20:06:41.565Z,57.70
2018-07-02T20:09:16.391Z,58.50
2018-07-02T20:11:51.190Z,59.40
2018-07-02T20:14:19.929Z,60.50
2018-07-02T20:16:48.235Z,61.80
2018-07-02T20:19:16.902Z,63.10
2018-07-02T20:21:50.882Z,63.90
2018-07-02T20:24:19.130Z,64.30
2018-07-02T20:26:54.170Z,65.10
2018-07-02T20:29:24.410Z,66.00
2018-07-02T20:31:52.663Z,67.00
2018-07-02T20:34:25.244Z,68.00
2018-07-02T20:36:53.525Z,68.90
2018-07-02T20:39:25.247Z,69.80
2018-07-02T20:41:53.515Z,70.90
2018-07-02T20:44:28.247Z,72.20
2018-07-02T20:46:56.526Z,72.90
2018-07-02T20:49:34.600Z,73.80
2018-07-02T20:52:08.770Z,75.10
2018-07-02T20:54:37.678Z,76.30
2018-07-02T20:57:12.782Z,76.90
2018-07-02T20:59:41.213Z,77.60
2018-07-02T21:02:09.661Z,78.60
2018-07-02T21:04:38.109Z,79.50
2018-07-02T21:07:06.659Z,80.20
2018-07-02T21:09:34.884Z,80.90
2018-07-02T21:12:05.944Z,81.20
2018-07-02T21:14:37.387Z,81.80
2018-07-02T21:17:05.879Z,82.10
2018-07-02T21:19:37.218Z,82.50
2018-07-02T21:22:13.481Z,82.90
2018-07-02T21:24:41.740Z,83.30
2018-07-02T21:27:10.058Z,83.80
2018-07-02T21:29:44.622Z,84.10
2018-07-02T21:32:18.262Z,85.00
2018-07-02T21:34:46.531Z,84.60
2018-07-02T21:37:21.255Z,84.60
2018-07-02T21:39:49.534Z,84.70
2018-07-02T21:42:22.067Z,84.50
2018-07-02T21:44:50.296Z,84.30
2018-07-02T21:47:29.373Z,84.30
2018-07-02T21:50:00.997Z,84.50
2018-07-02T21:52:32.015Z,84.50
2018-07-02T21:55:00.391Z,84.80
2018-07-02T22:00:08.062Z,85.40
2018-07-02T22:02:43.575Z,85.50
2018-07-02T22:05:16.887Z,85.90
2018-07-02T22:07:52.410Z,86.00
2018-07-02T22:10:27.835Z,86.40
2018-07-02T22:13:02.660Z,86.60
2018-07-02T22:15:31.038Z,86.80
2018-07-02T22:17:59.635Z,87.40
2018-07-02T22:20:28.148Z,87.70
2018-07-02T22:22:56.466Z,88.00
2018-07-02T22:25:24.690Z,88.50
2018-07-02T22:27:59.458Z,88.40
2018-07-02T22:30:27.863Z,89.80
2018-07-02T22:32:56.392Z,89.50
2018-07-02T22:35:24.602Z,89.70
2018-07-02T22:37:58.291Z,90.00
2018-07-02T22:40:30.708Z,90.00
2018-07-02T22:45:42.206Z,90.20
2018-07-02T22:48:22.763Z,90.40
2018-07-02T22:50:57.489Z,90.60
2018-07-02T22:53:25.763Z,90.80
2018-07-02T22:55:58.798Z,91.00
2018-07-02T22:58:27.116Z,91.10
2018-07-02T23:00:56.038Z,91.40
2018-07-02T23:03:28.615Z,91.50
2018-07-02T23:06:03.222Z,91.60
2018-07-02T23:08:34.437Z,91.80
2018-07-02T23:11:05.506Z,92.20
2018-07-02T23:13:33.817Z,92.40
2018-07-02T23:16:05.002Z,92.60
2018-07-02T23:18:45.150Z,92.80
2018-07-02T23:21:13.698Z,93.00
2018-07-02T23:23:55.971Z,93.20
2018-07-02T23:26:28.483Z,93.40
2018-07-02T23:29:02.627Z,93.60
2018-07-02T23:31:30.845Z,93.90
2018-07-02T23:34:03.458Z,94.10
2018-07-02T23:36:31.683Z,94.10
2018-07-02T23:39:04.798Z,94.30
2018-07-02T23:41:43.572Z,94.60
2018-07-02T23:44:18.286Z,94.80
2018-07-02T23:46:46.579Z,95.00
2018-07-02T23:49:19.897Z,95.20
2018-07-02T23:51:56.853Z,95.40
2018-07-02T23:56:57.493Z,95.90
